Time;durP1;ratioP1;P1;durP2;ratioP2;P2;SDS_P1;SDS_P2;PMS_P1;PMS_P2;Temp;Humidity;BMP_temperature;BMP_pressure;BME280_temperature;BME280_humidity;BME280_pressure;Samples;Min_cycle;Max_cycle;Signal;HPM_P1;HPM_P2
2021/01/20 00:02:29;;;;;;;23.98;6.70;;;;;;;1.79;83.45;99459.20;119926;1150;22961;-65
2021/01/20 00:04:59;;;;;;;24.60;6.90;;;;;;;1.80;83.58;99458.02;119944;1150;28288;-65
2021/01/20 00:07:29;;;;;;;20.80;6.20;;;;;;;1.81;83.44;99454.03;119988;1151;23074;-64
2021/01/20 00:10:00;;;;;;;20.97;7.37;;;;;;;1.80;83.56;99453.26;119980;1151;23032;-64
2021/01/20 00:12:30;;;;;;;19.27;6.80;;;;;;;1.79;83.79;99459.98;120036;1149;22927;-65
2021/01/20 00:15:00;;;;;;;22.35;6.00;;;;;;;1.78;83.42;99461.18;119940;1150;22931;-64
2021/01/20 00:17:30;;;;;;;21.37;6.00;;;;;;;1.76;83.57;99452.59;120051;1150;23004;-66
2021/01/20 00:20:01;;;;;;;21.07;5.60;;;;;;;1.76;83.43;99451.84;120425;1150;22944;-65
2021/01/20 00:22:31;;;;;;;20.68;6.47;;;;;;;1.75;83.51;99447.54;120086;1151;23054;-65
2021/01/20 00:25:01;;;;;;;19.80;6.15;;;;;;;1.76;84.07;99455.34;119997;1151;22975;-65
2021/01/20 00:27:31;;;;;;;18.73;5.10;;;;;;;1.76;83.63;99462.85;120074;1150;28883;-64
2021/01/20 00:30:01;;;;;;;16.35;4.92;;;;;;;1.77;83.88;99458.88;119975;1150;28611;-66
2021/01/20 00:32:31;;;;;;;17.40;4.45;;;;;;;1.77;84.42;99464.38;119935;1150;26420;-66
2021/01/20 00:35:02;;;;;;;17.77;5.45;;;;;;;1.78;84.10;99463.94;119954;1151;22926;-66
2021/01/20 00:37:32;;;;;;;18.10;5.10;;;;;;;1.78;84.09;99463.94;120251;1149;24601;-66
2021/01/20 00:40:03;;;;;;;16.87;4.33;;;;;;;1.78;84.21;99458.43;119957;1151;22923;-65
2021/01/20 00:42:34;;;;;;;14.30;5.10;;;;;;;1.79;84.08;99453.70;120153;1150;27543;-64
2021/01/20 00:45:06;;;;;;;16.73;4.80;;;;;;;1.79;84.06;99456.45;120567;1150;22923;-66
2021/01/20 00:47:38;;;;;;;18.70;4.75;;;;;;;1.79;83.67;99459.98;119905;1150;23016;-65
2021/01/20 00:50:11;;;;;;;16.15;4.95;;;;;;;1.80;84.34;99460.77;119984;1150;23016;-65
2021/01/20 00:52:41;;;;;;;18.33;4.90;;;;;;;1.82;83.98;99459.09;120167;1150;22948;-66
2021/01/20 00:55:14;;;;;;;17.00;4.33;;;;;;;1.84;84.09;99455.92;120047;1149;26472;-64
2021/01/20 00:57:44;;;;;;;16.10;5.23;;;;;;;1.84;83.94;99459.45;120250;1149;22948;-64
2021/01/20 01:00:16;;;;;;;19.20;4.75;;;;;;;1.84;83.75;99462.20;119946;1151;22994;-64
2021/01/20 01:02:46;;;;;;;16.30;5.07;;;;;;;1.87;84.13;99463.28;120035;1150;22923;-64
2021/01/20 01:05:16;;;;;;;16.40;4.53;;;;;;;1.88;83.84;99460.12;120001;1151;26645;-66
2021/01/20 01:07:45;;;;;;;;;;;;;;;1.87;84.07;99460.53;120059;1151;22920;-66
2021/01/20 01:10:15;;;;;;;19.30;5.60;;;;;;;1.89;84.07;99463.62;119945;1151;21562;-66
2021/01/20 01:12:44;;;;;;;;;;;;;;;1.89;83.79;99450.63;120122;1149;22942;-65
2021/01/20 01:15:16;;;;;;;14.97;4.00;;;;;;;1.91;83.86;99461.20;119966;1151;21563;-64
2021/01/20 01:17:46;;;;;;;14.77;4.17;;;;;;;1.92;84.11;99462.75;119930;1150;22963;-65
2021/01/20 01:20:16;;;;;;;15.55;3.87;;;;;;;1.93;83.95;99467.81;120088;1150;23064;-65
2021/01/20 01:22:47;;;;;;;14.68;4.10;;;;;;;1.93;83.87;99456.80;120453;1149;27723;-65
2021/01/20 01:25:17;;;;;;;16.27;4.03;;;;;;;1.94;83.88;99455.61;119957;1151;22961;-66
2021/01/20 01:27:47;;;;;;;15.90;4.78;;;;;;;1.96;83.83;99450.43;120456;1150;27318;-66
2021/01/20 01:30:19;;;;;;;16.12;4.72;;;;;;;1.96;83.94;99457.91;120043;1151;22956;-65
2021/01/20 01:32:49;;;;;;;16.40;4.63;;;;;;;1.96;84.03;99455.16;120611;1150;23106;-65
2021/01/20 01:35:19;;;;;;;19.62;5.10;;;;;;;1.94;83.97;99450.10;119985;1151;24568;-64
2021/01/20 01:37:48;;;;;;;;;;;;;;;1.95;84.28;99448.88;120162;1151;23017;-66
2021/01/20 01:40:20;;;;;;;17.47;5.00;;;;;;;1.93;84.67;99461.53;120635;1110;24230;-63
2021/01/20 01:42:50;;;;;;;18.60;4.77;;;;;;;1.92;84.54;99454.50;120745;1150;23380;-63
2021/01/20 01:45:21;;;;;;;16.02;4.22;;;;;;;1.93;84.62;99450.52;119755;1151;23033;-64
2021/01/20 01:47:51;;;;;;;16.60;4.25;;;;;;;1.95;84.21;99454.38;120079;1151;22942;-63
2021/01/20 01:50:22;;;;;;;16.75;4.25;;;;;;;1.95;84.42;99467.37;119942;1150;23046;-64
2021/01/20 01:52:53;;;;;;;15.25;4.70;;;;;;;1.97;84.52;99462.19;120128;1151;22964;-65
2021/01/20 01:55:23;;;;;;;;;;;;;;;1.96;84.18;99466.17;119978;1151;27288;-63
2021/01/20 01:57:53;;;;;;;16.80;4.60;;;;;;;1.94;84.79;99463.86;120135;1150;21579;-63
2021/01/20 02:00:24;;;;;;;15.63;4.40;;;;;;;1.92;84.33;99466.28;120064;1151;22955;-63
2021/01/20 02:02:53;;;;;;;;;;;;;;;1.92;84.68;99471.79;120206;1150;27744;-63
2021/01/20 02:05:22;;;;;;;18.30;4.70;;;;;;;1.91;84.97;99470.23;119988;1150;23218;-63
2021/01/20 02:07:53;;;;;;;16.97;3.63;;;;;;;1.92;84.86;99471.02;119619;1151;22980;-63
2021/01/20 02:10:24;;;;;;;16.65;4.75;;;;;;;1.94;84.67;99483.13;119925;1151;26376;-64
2021/01/20 02:13:11;;;;;;;16.35;4.80;;;;;;;1.93;84.62;99473.31;119796;1151;23018;-65
2021/01/20 02:15:46;;;;;;;16.90;4.23;;;;;;;1.97;84.46;99475.95;119815;1151;23399;-64
2021/01/20 02:18:20;;;;;;;15.70;3.83;;;;;;;1.98;84.42;99472.78;119636;1151;23031;-64
2021/01/20 02:21:27;;;;;;;14.50;4.05;;;;;;;1.98;84.78;99475.53;119701;1151;23044;-64
2021/01/20 02:24:00;;;;;;;14.20;3.80;;;;;;;1.99;84.96;99476.28;119790;1151;22929;-64
2021/01/20 02:26:41;;;;;;;11.83;2.90;;;;;;;2.00;84.83;99473.11;119652;1150;22948;-64
2021/01/20 02:29:24;;;;;;;15.00;3.90;;;;;;;1.98;85.04;99478.28;119750;1151;22946;-64
2021/01/20 02:31:56;;;;;;;11.20;3.50;;;;;;;1.98;84.87;99472.00;119646;1151;22971;-65
2021/01/20 02:34:28;;;;;;;14.87;4.17;;;;;;;1.97;84.92;99471.23;120043;1151;22964;-64
2021/01/20 02:37:02;;;;;;;13.13;3.73;;;;;;;1.97;84.97;99468.47;120028;1149;23090;-65
2021/01/20 02:39:33;;;;;;;13.20;3.50;;;;;;;1.97;85.06;99479.48;120112;1151;25995;-64
2021/01/20 02:42:04;;;;;;;11.30;3.37;;;;;;;1.97;84.82;99473.20;120085;1151;27409;-64
2021/01/20 02:44:37;;;;;;;10.90;3.25;;;;;;;1.98;84.84;99480.27;120045;1151;25969;-64
2021/01/20 02:47:09;;;;;;;9.40;3.00;;;;;;;1.98;84.94;99480.27;120044;1151;25977;-64
2021/01/20 02:49:39;;;;;;;12.20;3.05;;;;;;;1.95;85.11;99481.91;120043;1150;23367;-64
2021/01/20 02:52:12;;;;;;;;;;;;;;;1.97;85.17;99475.95;119782;1151;22970;-63
2021/01/20 02:54:43;;;;;;;13.40;3.07;;;;;;;1.96;85.43;99468.92;119827;1151;21578;-63
2021/01/20 02:57:14;;;;;;;14.80;3.57;;;;;;;1.96;85.52;99477.18;119714;1151;22932;-64
2021/01/20 02:59:47;;;;;;;12.30;3.23;;;;;;;1.97;85.59;99487.74;119847;1151;23517;-64
2021/01/20 03:02:19;;;;;;;11.05;2.80;;;;;;;1.97;85.53;99482.23;120080;1151;22932;-63
2021/01/20 03:04:50;;;;;;;12.30;3.35;;;;;;;1.99;85.74;99481.79;119775;1151;24582;-63
2021/01/20 03:07:22;;;;;;;11.97;3.30;;;;;;;2.00;85.58;99495.14;119968;1151;24568;-63
2021/01/20 03:09:52;;;;;;;13.17;3.40;;;;;;;2.00;85.58;99492.38;119947;1151;23061;-63
2021/01/20 03:12:26;;;;;;;11.83;3.50;;;;;;;2.01;85.10;99490.37;120112;1150;26754;-63
2021/01/20 03:14:58;;;;;;;14.87;3.50;;;;;;;2.02;85.50;99497.44;119955;1150;22957;-63
2021/01/20 03:17:30;;;;;;;11.10;2.80;;;;;;;2.06;85.61;99498.11;120048;1151;22945;-65
2021/01/20 03:20:00;;;;;;;10.53;2.87;;;;;;;2.10;85.03;99501.52;120045;1151;22948;-63
2021/01/20 03:22:30;;;;;;;12.10;3.17;;;;;;;2.13;85.10;99500.66;120064;1151;22930;-63
2021/01/20 03:25:00;;;;;;;12.43;3.33;;;;;;;2.16;85.39;99505.27;120038;1151;23110;-63
2021/01/20 03:27:30;;;;;;;11.97;3.25;;;;;;;2.20;85.31;99506.70;120071;1151;23021;-63
2021/01/20 03:30:01;;;;;;;14.00;4.33;;;;;;;2.24;84.97;99503.84;120007;1151;22934;-63
2021/01/20 03:32:30;;;;;;;15.07;3.87;;;;;;;2.26;85.21;99498.66;120113;1150;22951;-63
2021/01/20 03:35:01;;;;;;;13.68;4.05;;;;;;;2.29;85.16;99495.03;119909;1150;22933;-63
2021/01/20 03:37:31;;;;;;;14.75;4.03;;;;;;;2.27;85.29;99505.72;119961;1151;22961;-64
2021/01/20 03:40:01;;;;;;;14.87;4.92;;;;;;;2.25;85.12;99500.66;120042;1151;22960;-63
2021/01/20 03:42:31;;;;;;;15.83;4.20;;;;;;;2.26;85.06;99496.68;120447;1150;22976;-63
2021/01/20 03:45:00;;;;;;;;;;;;;;;2.28;85.01;99499.77;120113;1151;23243;-62
2021/01/20 03:47:31;;;;;;;18.65;4.85;;;;;;;2.30;85.27;99505.60;119938;1151;21622;-63
2021/01/20 03:50:01;;;;;;;16.23;4.77;;;;;;;2.32;84.92;99505.16;120103;1150;24515;-63
2021/01/20 03:52:31;;;;;;;17.27;4.83;;;;;;;2.33;85.03;99512.22;120076;1151;22961;-63
2021/01/20 03:55:01;;;;;;;18.57;5.20;;;;;;;2.33;85.32;99504.73;119671;1151;26443;-64
2021/01/20 03:57:31;;;;;;;16.67;4.78;;;;;;;2.35;85.00;99504.28;119993;1151;26373;-64
2021/01/20 04:00:01;;;;;;;18.33;5.20;;;;;;;2.36;85.01;99508.56;119658;1151;24675;-63
2021/01/20 04:02:32;;;;;;;20.90;6.05;;;;;;;2.35;84.95;99507.81;120202;1151;22935;-63
2021/01/20 04:05:02;;;;;;;17.20;5.70;;;;;;;2.37;85.15;99508.14;120133;1151;22926;-64
2021/01/20 04:07:34;;;;;;;16.23;4.43;;;;;;;2.39;85.31;99507.70;120410;1150;24638;-64
2021/01/20 04:10:07;;;;;;;17.00;5.40;;;;;;;2.38;84.96;99506.92;120211;1150;23043;-64
2021/01/20 04:12:38;;;;;;;18.13;6.53;;;;;;;2.41;85.09;99508.80;120088;1151;22970;-63
2021/01/20 04:15:11;;;;;;;19.10;6.05;;;;;;;2.41;84.88;99508.80;120036;1151;22957;-64
2021/01/20 04:17:40;;;;;;;18.80;6.07;;;;;;;2.40;85.03;99512.76;120140;1150;22935;-64
2021/01/20 04:20:13;;;;;;;17.75;5.10;;;;;;;2.40;85.26;99512.76;119615;1151;22987;-64
2021/01/20 04:22:43;;;;;;;14.83;5.13;;;;;;;2.40;84.79;99517.52;120006;1151;27227;-64
2021/01/20 04:25:14;;;;;;;16.00;4.73;;;;;;;2.40;85.13;99518.27;119955;1151;22933;-63
2021/01/20 04:27:44;;;;;;;16.50;5.10;;;;;;;2.41;84.87;99522.58;120125;1150;24604;-64
2021/01/20 04:30:16;;;;;;;17.17;5.40;;;;;;;2.39;84.73;99521.47;119925;1151;22958;-63
2021/01/20 04:32:46;;;;;;;16.05;4.50;;;;;;;2.37;85.14;99519.16;119765;1151;25973;-62
2021/01/20 04:35:16;;;;;;;18.07;5.33;;;;;;;2.35;85.30;99521.59;119996;1151;22926;-64
2021/01/20 04:37:46;;;;;;;17.75;5.40;;;;;;;2.37;84.77;99521.14;120052;1150;22926;-63
2021/01/20 04:40:18;;;;;;;16.37;4.87;;;;;;;2.37;85.18;99527.42;120014;1151;22948;-63
2021/01/20 04:42:49;;;;;;;16.37;4.50;;;;;;;2.36;85.00;99523.12;120109;1150;22977;-63
2021/01/20 04:45:19;;;;;;;13.58;4.20;;;;;;;2.38;84.76;99517.94;120002;1150;26034;-64
2021/01/20 04:47:53;;;;;;;14.70;4.53;;;;;;;2.36;85.24;99514.85;120179;1150;22967;-63
2021/01/20 04:50:23;;;;;;;16.87;4.17;;;;;;;2.35;85.22;99515.30;119993;1150;26448;-63
2021/01/20 04:52:54;;;;;;;;;;;;;;;2.34;85.00;99513.75;120010;1151;23039;-64
2021/01/20 04:55:25;;;;;;;17.20;4.42;;;;;;;2.30;85.05;99505.60;120121;1150;24667;-62
2021/01/20 04:57:55;;;;;;;13.73;4.13;;;;;;;2.26;84.67;99512.42;119992;1151;22939;-64
2021/01/20 05:00:28;;;;;;;14.05;4.35;;;;;;;2.25;85.25;99502.64;120022;1151;24643;-64
2021/01/20 05:02:59;;;;;;;13.47;4.10;;;;;;;2.25;84.92;99499.88;120038;1151;22973;-64
2021/01/20 05:05:29;;;;;;;12.93;4.27;;;;;;;2.26;84.88;99502.19;119905;1151;22947;-64
2021/01/20 05:08:03;;;;;;;14.93;4.33;;;;;;;2.26;84.71;99498.66;119982;1151;22936;-64
2021/01/20 05:10:34;;;;;;;16.23;5.00;;;;;;;2.25;84.57;99497.13;120207;1151;23050;-63
2021/01/20 05:13:04;;;;;;;19.03;4.90;;;;;;;2.24;84.59;99501.08;120049;1151;23003;-64
2021/01/20 05:15:35;;;;;;;12.20;4.25;;;;;;;2.22;84.88;99500.75;120003;1151;22926;-63
2021/01/20 05:18:07;;;;;;;15.15;4.55;;;;;;;2.20;84.71;99495.69;120069;1151;26885;-63
2021/01/20 05:20:38;;;;;;;13.55;3.95;;;;;;;2.16;84.39;99494.25;120083;1151;26066;-63
2021/01/20 05:23:08;;;;;;;;;;;;;;;2.12;84.71;99496.34;120040;1151;22948;-62
2021/01/20 05:25:39;;;;;;;14.47;4.10;;;;;;;2.06;84.85;99498.88;119919;1150;21630;-62
2021/01/20 05:28:21;;;;;;;18.77;5.03;;;;;;;2.02;84.87;99503.73;120187;1151;23128;-62
2021/01/20 05:30:53;;;;;;;15.30;5.57;;;;;;;1.96;84.93;99499.98;120093;1151;23025;-62
2021/01/20 05:33:24;;;;;;;18.47;6.30;;;;;;;1.93;85.08;99509.10;120227;1151;25947;-62
2021/01/20 05:36:09;;;;;;;18.80;7.03;;;;;;;1.92;84.90;99496.56;119962;1151;22966;-62
2021/01/20 05:38:41;;;;;;;18.10;5.90;;;;;;;1.92;85.14;99504.82;120012;1150;23240;-63
2021/01/20 05:41:22;;;;;;;19.17;5.30;;;;;;;1.91;85.45;99492.25;119977;1151;24645;-62
2021/01/20 05:43:53;;;;;;;15.97;5.20;;;;;;;1.89;85.16;99496.65;120144;1150;22974;-63
2021/01/20 05:46:35;;;;;;;17.27;6.37;;;;;;;1.88;85.40;99506.91;120020;1151;22936;-63
2021/01/20 05:49:07;;;;;;;19.07;6.40;;;;;;;1.88;85.40;99492.36;120086;1151;24728;-63
2021/01/20 05:51:41;;;;;;;14.43;4.97;;;;;;;1.89;85.83;99494.67;120049;1150;26165;-62
2021/01/20 05:54:12;;;;;;;17.43;6.00;;;;;;;1.91;85.52;99503.27;120045;1150;22974;-63
2021/01/20 05:56:44;;;;;;;17.97;5.50;;;;;;;1.94;85.28;99496.11;120496;1151;22968;-62
2021/01/20 05:59:26;;;;;;;16.93;5.43;;;;;;;1.94;85.44;99499.64;120137;1151;29491;-62
2021/01/20 06:01:56;;;;;;;19.20;7.20;;;;;;;1.95;85.42;99508.66;120113;1151;23015;-62
2021/01/20 06:04:25;;;;;;;;;;;;;;;1.95;85.68;99509.43;120055;1151;22927;-62
2021/01/20 06:06:56;;;;;;;22.30;9.00;;;;;;;1.96;85.60;99513.74;119592;1151;21632;-63
2021/01/20 06:09:27;;;;;;;23.27;8.43;;;;;;;1.97;85.62;99517.24;119659;1150;26673;-62
2021/01/20 06:12:00;;;;;;;19.80;7.50;;;;;;;1.98;86.15;99516.83;120120;1150;23509;-63
2021/01/20 06:14:30;;;;;;;18.17;5.87;;;;;;;1.99;85.46;99512.84;119940;1151;23091;-62
2021/01/20 06:17:11;;;;;;;14.70;5.15;;;;;;;2.01;86.08;99506.89;120077;1150;26245;-63
2021/01/20 06:19:47;;;;;;;19.75;6.42;;;;;;;2.02;85.68;99503.73;119963;1151;22979;-62
2021/01/20 06:22:19;;;;;;;15.20;4.43;;;;;;;2.04;85.69;99500.52;120104;1150;25954;-62
2021/01/20 06:24:51;;;;;;;16.35;5.35;;;;;;;2.06;85.55;99498.88;119858;1150;22906;-62
2021/01/20 06:27:27;;;;;;;14.45;4.85;;;;;;;2.09;85.55;99506.25;120017;1150;22958;-62
2021/01/20 06:30:06;;;;;;;15.93;5.33;;;;;;;2.11;85.54;99505.83;120125;1150;22947;-64
2021/01/20 06:32:42;;;;;;;15.43;5.00;;;;;;;2.14;85.67;99513.20;119903;1151;23025;-63
2021/01/20 06:35:13;;;;;;;16.65;6.05;;;;;;;2.17;85.71;99509.58;119940;1151;23373;-63
2021/01/20 06:37:45;;;;;;;17.60;6.40;;;;;;;2.18;85.98;99509.12;119921;1151;22945;-63
2021/01/20 06:40:48;;;;;;;18.77;8.10;;;;;;;2.19;85.97;99518.92;119943;1151;22932;-62
2021/01/20 06:43:36;;;;;;;26.83;9.63;;;;;;;2.20;85.47;99520.47;120028;1151;23057;-64
2021/01/20 06:46:26;;;;;;;24.45;10.15;;;;;;;2.22;85.74;99523.56;119918;1150;25513;-63
2021/01/20 06:49:09;;;;;;;26.30;11.10;;;;;;;2.25;85.42;99519.94;119899;1151;23100;-63
2021/01/20 06:51:42;;;;;;;32.57;14.13;;;;;;;2.28;85.95;99518.27;120286;1150;22920;-63
2021/01/20 06:54:14;;;;;;;38.63;16.80;;;;;;;2.30;85.91;99521.34;120023;1151;22964;-63
2021/01/20 06:56:47;;;;;;;41.93;19.13;;;;;;;2.30;85.38;99508.36;120037;1150;22988;-63
2021/01/20 06:59:23;;;;;;;47.90;21.37;;;;;;;2.32;85.79;99508.69;119944;1150;27265;-62
2021/01/20 07:02:13;;;;;;;42.00;17.33;;;;;;;2.34;85.65;99511.77;119807;1151;22937;-62
2021/01/20 07:04:56;;;;;;;20.33;7.80;;;;;;;2.37;85.88;99518.39;119943;1149;22898;-63
2021/01/20 07:08:01;;;;;;;21.20;8.75;;;;;;;2.38;85.48;99509.67;119616;1151;22924;-63
2021/01/20 07:11:05;;;;;;;43.77;17.70;;;;;;;2.41;85.54;99511.56;119456;1151;22942;-62
2021/01/20 07:13:41;;;;;;;29.23;12.53;;;;;;;2.43;85.77;99494.58;119832;1151;22947;-63
2021/01/20 07:16:13;;;;;;;27.20;12.67;;;;;;;2.46;85.54;99501.98;119945;1151;22946;-62
2021/01/20 07:18:47;;;;;;;24.23;11.60;;;;;;;2.50;85.80;99510.90;120167;1150;22928;-62
2021/01/20 07:21:19;;;;;;;27.10;13.63;;;;;;;2.52;85.53;99500.20;120035;1150;26462;-63
2021/01/20 07:23:49;;;;;;;26.20;13.00;;;;;;;2.56;85.37;99502.84;120217;1151;22958;-62
2021/01/20 07:26:19;;;;;;;24.43;12.60;;;;;;;2.56;85.43;99492.59;120158;1151;22932;-62
2021/01/20 07:28:50;;;;;;;22.07;10.35;;;;;;;2.58;85.54;99500.41;119953;1151;22948;-63
2021/01/20 07:31:21;;;;;;;20.57;9.35;;;;;;;2.59;85.67;99491.69;120126;1151;26395;-62
2021/01/20 07:33:53;;;;;;;23.35;8.70;;;;;;;2.63;85.50;99497.11;120014;1150;28413;-64
2021/01/20 07:36:24;;;;;;;20.33;8.90;;;;;;;2.66;85.22;99498.96;120030;1150;24590;-63
2021/01/20 07:38:54;;;;;;;19.50;7.43;;;;;;;2.69;85.36;99507.11;119700;1151;23012;-63
2021/01/20 07:41:25;;;;;;;19.75;7.87;;;;;;;2.73;85.28;99501.50;120166;1151;22922;-63
2021/01/20 07:44:07;;;;;;;17.00;6.80;;;;;;;2.75;85.36;99502.58;120005;1151;22974;-63
2021/01/20 07:46:37;;;;;;;15.70;5.57;;;;;;;2.79;85.20;99499.72;120130;1150;22938;-63
2021/01/20 07:49:14;;;;;;;14.38;5.90;;;;;;;2.81;85.28;99500.05;119871;1151;24722;-63
2021/01/20 07:51:58;;;;;;;19.43;7.00;;;;;;;2.84;84.84;99494.41;119935;1151;22946;-62
2021/01/20 07:54:35;;;;;;;19.33;5.57;;;;;;;2.87;84.90;99490.00;119905;1151;22982;-63
2021/01/20 07:57:08;;;;;;;13.50;4.27;;;;;;;2.90;85.04;99495.38;120186;1150;23030;-63
2021/01/20 07:59:38;;;;;;;15.47;4.50;;;;;;;2.92;85.08;99495.70;119976;1151;22933;-61
2021/01/20 08:02:10;;;;;;;12.80;4.43;;;;;;;2.93;84.53;99488.99;120069;1151;22974;-61
2021/01/20 08:04:41;;;;;;;18.97;6.20;;;;;;;2.96;84.57;99492.84;119864;1150;22974;-62
2021/01/20 08:07:23;;;;;;;14.40;5.00;;;;;;;2.98;84.89;99491.16;122211;1151;22965;-62
2021/01/20 08:09:54;;;;;;;16.60;5.53;;;;;;;3.00;84.73;99488.73;120009;1151;22965;-61
2021/01/20 08:12:28;;;;;;;17.27;5.47;;;;;;;3.02;84.60;99491.06;120002;1151;22933;-61
2021/01/20 08:15:00;;;;;;;18.07;6.47;;;;;;;3.02;84.48;99489.05;119710;1151;23007;-62
2021/01/20 08:17:31;;;;;;;18.40;5.10;;;;;;;3.04;84.56;99488.63;119980;1151;22943;-61
2021/01/20 08:20:02;;;;;;;14.67;5.00;;;;;;;3.07;84.49;99476.70;120114;1149;22958;-63
2021/01/20 08:22:32;;;;;;;14.30;4.50;;;;;;;3.09;84.75;99482.53;120242;1150;23365;-64
2021/01/20 08:25:03;;;;;;;14.68;4.40;;;;;;;3.11;84.74;99482.86;120069;1150;22933;-62
2021/01/20 08:27:34;;;;;;;17.32;5.80;;;;;;;3.13;84.55;99488.69;119833;1150;22942;-61
2021/01/20 08:30:07;;;;;;;20.53;7.03;;;;;;;3.16;84.38;99493.33;119974;1151;23359;-62
2021/01/20 08:32:52;;;;;;;20.17;6.33;;;;;;;3.19;84.54;99497.94;119880;1150;22971;-63
2021/01/20 08:35:39;;;;;;;19.45;6.90;;;;;;;3.23;84.25;99482.03;119595;1150;24657;-61
2021/01/20 08:38:27;;;;;;;14.87;5.40;;;;;;;3.26;84.28;99481.15;119538;1151;22988;-63
2021/01/20 08:41:14;;;;;;;15.80;6.47;;;;;;;3.27;84.18;99475.17;119961;1151;22956;-62
2021/01/20 08:43:44;;;;;;;14.90;4.90;;;;;;;3.32;84.47;99473.84;120119;1151;22932;-62
2021/01/20 08:46:24;;;;;;;13.60;3.75;;;;;;;3.35;83.92;99477.70;119945;1151;22957;-62
2021/01/20 08:49:00;;;;;;;15.70;5.10;;;;;;;3.40;84.14;99485.38;119656;1151;23044;-61
2021/01/20 08:51:31;;;;;;;16.87;5.30;;;;;;;3.42;83.57;99497.52;119716;1151;27268;-61
2021/01/20 08:54:12;;;;;;;14.45;4.20;;;;;;;3.44;84.04;99489.56;119698;1150;25955;-61
2021/01/20 08:56:43;;;;;;;14.70;3.40;;;;;;;3.48;83.49;99497.70;120056;1151;27270;-61
2021/01/20 08:59:13;;;;;;;14.77;3.87;;;;;;;3.49;83.44;99505.55;122571;1150;23191;-62
2021/01/20 09:01:44;;;;;;;12.82;2.98;;;;;;;3.51;83.52;99478.27;119952;1151;22929;-61
2021/01/20 09:04:14;;;;;;;11.38;3.17;;;;;;;3.56;83.64;99485.22;119902;1151;22946;-61
2021/01/20 09:06:44;;;;;;;13.30;3.40;;;;;;;3.58;83.31;99511.12;119988;1151;22968;-61
2021/01/20 09:09:14;;;;;;;15.53;4.33;;;;;;;3.59;83.40;99501.63;119930;1151;22997;-62
2021/01/20 09:11:45;;;;;;;12.70;3.50;;;;;;;3.63;83.36;99504.25;119928;1151;23064;-61
2021/01/20 09:14:16;;;;;;;14.17;3.20;;;;;;;3.62;83.26;99497.95;120027;1150;25589;-62
2021/01/20 09:16:47;;;;;;;14.17;2.83;;;;;;;3.65;83.04;99505.35;120086;1151;23097;-60
2021/01/20 09:19:17;;;;;;;13.37;3.23;;;;;;;3.66;83.26;99506.88;119884;1151;23015;-62
2021/01/20 09:21:49;;;;;;;11.40;2.52;;;;;;;3.67;83.21;99505.67;120292;1151;22967;-62
2021/01/20 09:24:19;;;;;;;13.07;3.13;;;;;;;3.67;82.86;99513.17;119790;1150;23043;-61
2021/01/20 09:26:50;;;;;;;16.50;3.97;;;;;;;3.67;82.85;99507.66;120024;1151;23058;-62
2021/01/20 09:29:24;;;;;;;14.95;3.35;;;;;;;3.65;82.53;99516.39;119779;1151;23122;-61
2021/01/20 09:31:55;;;;;;;14.83;3.23;;;;;;;3.63;82.70;99510.55;119855;1151;24564;-62
2021/01/20 09:34:24;;;;;;;;;;;;;;;3.63;82.62;99518.83;120172;1150;23100;-61
2021/01/20 09:36:56;;;;;;;12.60;2.83;;;;;;;3.62;82.50;99513.77;120307;1150;28155;-63
2021/01/20 09:39:27;;;;;;;13.37;2.93;;;;;;;3.61;82.81;99521.27;120254;1150;24140;-64
2021/01/20 09:42:00;;;;;;;15.60;3.30;;;;;;;3.61;82.50;99520.49;120513;1150;22931;-63
2021/01/20 09:44:31;;;;;;;16.53;3.67;;;;;;;3.60;82.42;99519.72;120165;1150;23264;-63
2021/01/20 09:47:04;;;;;;;16.97;3.70;;;;;;;3.59;82.66;99520.95;120167;1151;22946;-63
2021/01/20 09:49:36;;;;;;;15.13;3.23;;;;;;;3.60;82.76;99519.72;120322;1151;23021;-64
2021/01/20 09:52:07;;;;;;;14.10;3.12;;;;;;;3.61;82.71;99512.22;120184;1150;23342;-63
2021/01/20 09:54:38;;;;;;;16.82;4.22;;;;;;;3.63;82.90;99520.81;120567;1150;22944;-64
2021/01/20 09:57:08;;;;;;;12.87;3.90;;;;;;;3.66;82.87;99528.96;120405;1151;24584;-63
2021/01/20 09:59:38;;;;;;;15.57;4.50;;;;;;;3.68;82.21;99523.79;120861;1150;23832;-63
2021/01/20 10:02:08;;;;;;;18.32;4.25;;;;;;;3.74;82.75;99521.21;120076;1151;27966;-62
2021/01/20 10:04:38;;;;;;;15.78;3.42;;;;;;;3.78;82.74;99516.33;120003;1151;23428;-64
2021/01/20 10:07:08;;;;;;;16.40;3.47;;;;;;;3.83;82.34;99519.27;119948;1151;23108;-64
2021/01/20 10:09:39;;;;;;;13.48;2.72;;;;;;;3.90;82.28;99509.95;119976;1151;22912;-63
2021/01/20 10:12:11;;;;;;;13.28;3.25;;;;;;;3.96;82.48;99508.14;120210;1150;26143;-63
2021/01/20 10:14:41;;;;;;;15.57;3.27;;;;;;;4.02;82.31;99507.11;121144;1151;27610;-63
2021/01/20 10:17:12;;;;;;;15.97;4.07;;;;;;;4.09;82.35;99497.80;120846;1110;23109;-64
2021/01/20 10:19:43;;;;;;;16.23;3.40;;;;;;;4.14;82.26;99501.96;120403;1149;23014;-64
2021/01/20 10:22:13;;;;;;;16.63;4.10;;;;;;;4.21;81.89;99494.16;120108;1150;23048;-66
2021/01/20 10:24:44;;;;;;;14.38;3.27;;;;;;;4.29;82.10;99495.42;120091;1150;22937;-64
2021/01/20 10:27:15;;;;;;;13.45;2.80;;;;;;;4.37;81.60;99493.14;120020;1150;22930;-64
2021/01/20 10:29:45;;;;;;;13.20;3.10;;;;;;;4.45;81.85;99483.36;120183;1149;26472;-65
2021/01/20 10:32:16;;;;;;;14.93;3.10;;;;;;;4.56;81.94;99483.69;120098;1151;22923;-64
2021/01/20 10:34:46;;;;;;;12.53;3.23;;;;;;;4.68;81.79;99483.56;120040;1149;22923;-65
2021/01/20 10:37:16;;;;;;;;;;;;;;;4.80;81.56;99479.91;120359;1150;23016;-63
2021/01/20 10:39:46;;;;;;;18.03;2.60;;;;;;;4.91;81.55;99484.99;120050;1150;21581;-66
2021/01/20 10:42:16;;;;;;;13.32;2.70;;;;;;;5.00;80.64;99476.72;120221;1150;27767;-63
2021/01/20 10:44:47;;;;;;;11.27;2.30;;;;;;;5.10;80.53;99477.48;120373;1149;23048;-64
2021/01/20 10:47:18;;;;;;;10.45;2.45;;;;;;;5.16;80.34;99481.95;120235;1149;27264;-65
2021/01/20 10:49:47;;;;;;;;;;;;;;;5.21;80.15;99483.34;120185;1150;27236;-64
2021/01/20 10:52:17;;;;;;;11.47;2.30;;;;;;;5.24;80.20;99483.17;119790;1150;21690;-63
2021/01/20 10:54:47;;;;;;;;;;;;;;;5.31;80.04;99482.88;120146;1151;27297;-63
2021/01/20 10:57:20;;;;;;;9.50;2.20;;;;;;;5.36;80.09;99485.02;119994;1150;21566;-63
2021/01/20 10:59:51;;;;;;;12.55;2.60;;;;;;;5.42;79.83;99480.40;119950;1151;22948;-63
2021/01/20 11:02:21;;;;;;;8.57;2.07;;;;;;;5.47;80.08;99468.72;119993;1150;27086;-64
2021/01/20 11:04:52;;;;;;;11.22;2.10;;;;;;;5.53;79.62;99471.62;120001;1150;22957;-64
2021/01/20 11:07:21;;;;;;;;;;;;;;;5.55;79.10;99478.24;119998;1151;24737;-63
2021/01/20 11:09:53;;;;;;;8.53;1.57;;;;;;;5.56;78.89;99479.02;120111;1151;21626;-64
2021/01/20 11:12:24;;;;;;;8.63;1.83;;;;;;;5.56;78.93;99481.78;120210;1149;23096;-64
2021/01/20 11:14:54;;;;;;;11.30;2.53;;;;;;;5.60;79.29;99479.62;120227;1150;22934;-63
2021/01/20 11:17:24;;;;;;;10.58;2.05;;;;;;;5.61;79.18;99476.39;120064;1151;22923;-63
2021/01/20 11:19:54;;;;;;;12.70;2.70;;;;;;;5.64;78.67;99483.00;120104;1150;22934;-65
2021/01/20 11:22:25;;;;;;;10.20;2.05;;;;;;;5.68;78.49;99483.61;120364;1150;22936;-66
2021/01/20 11:25:00;;;;;;;9.43;1.80;;;;;;;5.72;78.49;99471.15;120025;1150;23054;-63
2021/01/20 11:27:30;;;;;;;9.17;2.00;;;;;;;5.76;78.78;99479.28;120171;1149;23061;-63
2021/01/20 11:30:01;;;;;;;11.80;2.42;;;;;;;5.78;78.35;99476.05;120014;1150;22982;-63
2021/01/20 11:32:31;;;;;;;10.15;1.87;;;;;;;5.79;78.23;99467.30;120159;1151;22923;-64
2021/01/20 11:35:02;;;;;;;10.65;2.27;;;;;;;5.82;78.04;99469.11;120378;1149;26414;-63
2021/01/20 11:37:33;;;;;;;10.20;2.13;;;;;;;5.85;78.04;99470.22;120011;1150;27378;-63
2021/01/20 11:40:05;;;;;;;12.40;2.47;;;;;;;5.86;77.96;99464.20;120154;1150;22895;-63
2021/01/20 11:42:36;;;;;;;11.70;2.63;;;;;;;5.85;78.22;99459.92;120052;1150;22934;-65
2021/01/20 11:45:10;;;;;;;13.80;2.93;;;;;;;5.88;78.00;99469.28;120019;1149;22934;-63
2021/01/20 11:47:41;;;;;;;16.83;3.37;;;;;;;5.89;78.06;99459.75;119945;1150;22964;-63
2021/01/20 11:50:14;;;;;;;13.27;2.87;;;;;;;5.88;77.87;99466.51;120072;1150;23373;-63
2021/01/20 11:52:45;;;;;;;12.90;2.80;;;;;;;5.88;77.78;99445.13;120165;1151;22955;-62
2021/01/20 11:55:17;;;;;;;15.75;4.00;;;;;;;5.90;77.85;99450.96;119956;1150;22923;-62